• Join FlightAware (Why Join?)
  • Login
  • US Flag 
11:24PM EDT


 

Airport Tracker/Info


-or-


 

Live Flight TrackerFlight Track Log ✈ EJA929 ✈ 10-Aug-2013 ✈ KBBG - KSMF

Flight Track Log - Related Links

Times and Time Zones

All times are in EDT time to prevent confusion due to time zone crossing. See the EJA929 flight status page for this flight to view local times or setup timezone preferences in your user account.

Time Position Orientation Groundspeed Altitude Reporting Facility
EDT Latitude Longitude Course Direction KTS MPH feet Rate Location/Type
12:38PM 36.5786 -93.3836 312° West 272 313 7,000  Level Kansas City Center
12:39PM 36.6061 -93.4772 290° West 292 336 9,000 1,800 Climbing Kansas City Center
12:40PM 36.6353 -93.5922 288° West 296 341 10,800 1,500 Climbing Kansas City Center
12:41PM 36.6644 -93.7078 287° West 341 392 12,100 1,260 Climbing Kansas City Center
12:42PM 36.7455 -94.0780 289° West  Level FlightAware Approximate
12:42PM 36.6917 -93.8214 287° West 354 407 13,500  Level Kansas City Center
12:43PM 36.7219 -93.9428 287° West 363 418 14,800 1,260 Climbing Kansas City Center
12:44PM 36.7531 -94.0686 287° West 374 430 16,100 1,260 Climbing Kansas City Center
12:45PM 36.7897 -94.2194 287° West 379 436 17,500 1,080 Climbing Kansas City Center
12:46PM 36.8211 -94.3508 287° West 392 451 18,400 1,200 Climbing Kansas City Center
12:47PM 36.8553 -94.4794 288° West 392 451 20,000 1,140 Climbing Kansas City Center
12:48PM 36.8939 -94.6053 291° West 390 449 20,800 840 Climbing Kansas City Center
12:49PM 36.9333 -94.7358 291° West 397 457 21,800 900 Climbing Kansas City Center
12:50PM 36.9725 -94.8672 290° West 403 464 22,700 900 Climbing Kansas City Center
12:51PM 37.0200 -95.0272 290° West 409 471 23,700 960 Climbing Kansas City Center
12:53PM 37.0608 -95.1631 291° West 416 479 24,700 960 Climbing Kansas City Center
12:54PM 37.0997 -95.3008 290° West 419 482 25,800 960 Climbing Kansas City Center
12:55PM 37.1242 -95.4439 282° West 421 484 26,700 780 Climbing Kansas City Center
12:56PM 37.1489 -95.5892 282° West 423 487 27,500 780 Climbing Kansas City Center
12:57PM 37.1736 -95.7367 282° West 428 493 28,400 1,440 Climbing Kansas City Center
12:58PM 37.2028 -95.9139 282° West 432 497 30,500 1,500 Climbing Kansas City Center
12:59PM 37.2264 -96.0578 282° West 429 494 31,500 1,020 Climbing Kansas City Center
01:00PM 37.2497 -96.2011 282° West 425 489 32,700 1,200 Climbing Kansas City Center
01:01PM 37.2581 -96.3475 274° West 424 488 34,000 1,320 Climbing Kansas City Center
01:02PM 37.2583 -96.4933 270° West 422 486 35,500 1,200 Climbing Kansas City Center
01:04PM 37.2906 -96.7808 278° West 424 488 37,800 1,140 Climbing Kansas City Center
01:05PM 37.3194 -96.9544 282° West 423 487 39,200 960 Climbing Kansas City Center
01:06PM 37.3433 -97.1022 282° West 427 491 39,900 360 Climbing Kansas City Center
01:07PM 37.3683 -97.2553 282° West 434 499 40,000  Climbing Kansas City Center
01:08PM 37.3936 -97.4156 281° West 459 528 40,000  Level Kansas City Center
01:09PM 37.4197 -97.5800 281° West 473 544 40,000  Level Kansas City Center
01:10PM 37.4456 -97.7456 281° West 479 551 40,000  Level Kansas City Center
01:11PM 37.4711 -97.9125 281° West 481 554 40,000  Level Kansas City Center
01:12PM 37.5025 -98.1125 281° West 483 556 40,000  Level Kansas City Center
01:13PM 37.5275 -98.2797 281° West 482 555 40,000  Level Kansas City Center
01:14PM 37.5539 -98.4450 281° West 479 551 40,000  Level Kansas City Center
01:15PM 37.5778 -98.6100 280° West 479 551 40,000  Level Kansas City Center
01:16PM 37.6028 -98.7753 281° West 477 549 40,100 240 Climbing Kansas City Center
01:17PM 37.6242 -98.9353 280° West 467 537 40,600 480 Climbing Kansas City Center
01:18PM 37.6478 -99.0972 280° West 467 537 41,100 420 Climbing Kansas City Center
01:19PM 37.6706 -99.2572 280° West 465 535 41,500 480 Climbing Kansas City Center
01:20PM 37.6975 -99.4469 280° West 460 529 42,100 480 Climbing Kansas City Center
01:21PM 37.7200 -99.5944 281° West 461 531 42,600 420 Climbing Kansas City Center
01:22PM 37.7450 -99.7722 280° West 463 533 43,000 180 Climbing Kansas City Center
01:24PM 37.7664 -99.9242 280° West 462 532 43,000  Level Kansas City Center
01:25PM 37.7917 -100.1061 280° West 468 539 43,000  Level Kansas City Center
01:26PM 37.8122 -100.2614 280° West 469 540 43,000  Level Kansas City Center
01:27PM 37.8378 -100.4397 280° West 467 537 43,000  Level Kansas City Center
01:28PM 37.8583 -100.5928 280° West 464 534 43,000  Level Kansas City Center
01:29PM 37.8814 -100.7719 279° West 465 535 43,000  Level Kansas City Center
01:30PM 37.9008 -100.9222 279° West 459 528 43,000  Level Kansas City Center
01:31PM 37.9214 -101.0981 278° West 458 527 43,000  Level Kansas City Center
01:32PM 37.9444 -101.2758 279° West 460 529 43,000  Level Kansas City Center
01:33PM 37.9625 -101.4278 279° West 459 528 43,000  Level Kansas City Center
01:34PM 37.9819 -101.5825 279° West 464 534 43,000  Level Kansas City Center
01:35PM 38.0028 -101.7625 278° West 464 534 43,000  Level Kansas City Center
01:36PM 38.0219 -101.9164 279° West 463 533 43,000  Level Kansas City Center
01:37PM 38.0439 -102.0986 279° West 467 537 43,000  Level Kansas City Center
01:38PM 38.0622 -102.2561 278° West 470 541 43,000  Level Kansas City Center
01:39PM 38.0833 -102.4389 278° West 471 542 43,000  Level Kansas City Center
01:41PM 38.1108 -102.6758 278° West 474 545 43,000  Level Denver Center
01:42PM 38.1311 -102.8592 278° West 474 545 43,000  Level Denver Center
01:43PM 38.1481 -103.0197 278° West 480 552 43,000  Level Denver Center
01:44PM 38.1669 -103.1894 278° West 474 545 43,000  Level Denver Center
01:45PM 38.1869 -103.3711 278° West 469 540 43,000  Level Denver Center
01:46PM 38.2031 -103.5236 278° West 460 529 43,000  Level Denver Center
01:47PM 38.2219 -103.7033 278° West 461 531 43,000  Level Denver Center
01:48PM 38.2372 -103.8556 277° West 456 525 43,000  Level Denver Center
01:49PM 38.2547 -104.0311 277° West 450 518 43,000  Level Denver Center
01:50PM 38.2703 -104.1803 278° West 447 514 43,000  Level Denver Center
01:51PM 38.2875 -104.3536 277° West 444 511 43,000  Level Denver Center
01:52PM 38.3069 -104.5008 280° West 444 511 43,000  Level Denver Center
01:53PM 38.3394 -104.6642 284° West 450 518 43,000  Level Denver Center
01:54PM 38.3692 -104.8189 284° West 450 518 43,000  Level Denver Center
01:55PM 38.3994 -104.9725 284° West 449 517 43,000  Level Denver Center
01:56PM 38.4283 -105.1275 283° West 449 517 43,000  Level Denver Center
01:57PM 38.4639 -105.3144 284° West 452 520 43,000  Level Denver Center
01:58PM 38.4933 -105.4700 284° West 451 519 43,000  Level Denver Center
01:59PM 38.5222 -105.6275 283° West 454 522 43,000  Level Denver Center
02:00PM 38.5511 -105.7847 283° West 455 524 43,000  Level Denver Center
02:01PM 38.5839 -105.9653 283° West 460 529 43,000  Level Denver Center
02:02PM 38.6114 -106.1172 283° West 459 528 43,000  Level Denver Center
02:03PM 38.6422 -106.2892 283° West 462 532 43,000  Level Denver Center
02:04PM 38.6714 -106.4497 283° West 462 532 43,000  Level Denver Center
02:05PM 38.6997 -106.6108 283° West 463 533 43,000  Level Denver Center
02:06PM 38.7272 -106.7744 282° West 466 536 43,000  Level Denver Center
02:07PM 38.7553 -106.9386 282° West 469 540 43,000  Level Denver Center
02:08PM 38.7833 -107.1039 282° West 472 543 43,000  Level Denver Center
02:09PM 38.8161 -107.2928 283° West 478 550 43,000  Level Denver Center
02:11PM 38.8425 -107.4514 282° West 476 548 43,000  Level Denver Center
02:12PM 38.8733 -107.6381 282° West 479 551 43,000  Level Denver Center
02:13PM 38.8997 -107.7986 282° West 479 551 43,000  Level Denver Center
02:14PM 38.9311 -107.9861 282° West 480 552 43,000  Level Denver Center
02:15PM 38.9564 -108.1464 282° West 478 550 43,000  Level Denver Center
02:16PM 38.9856 -108.3328 281° West 475 547 43,000  Level Denver Center
02:17PM 39.0119 -108.4969 282° West 484 557 43,000  Level Denver Center
02:18PM 39.0378 -108.6631 281° West 489 563 43,000  Level Denver Center
02:19PM 39.0633 -108.8522 280° West 481 554 43,000  Level Denver Center
02:20PM 39.0767 -109.0164 276° West 480 552 43,000  Level Denver Center
02:21PM 39.0914 -109.2092 276° West 484 557 43,000  Level Denver Center
02:22PM 39.1050 -109.3753 276° West 486 559 43,000  Level Denver Center
02:23PM 39.1189 -109.5658 275° West 478 550 43,000  Level Denver Center
02:24PM 39.1317 -109.7328 276° West 484 557 43,000  Level Salt Lake Center
02:25PM 39.1442 -109.8969 276° West 482 555 43,000  Level Salt Lake Center
02:26PM 39.1583 -110.0908 275° West 485 558 43,000  Level Salt Lake Center
02:27PM 39.1700 -110.2561 275° West 484 557 43,000  Level Salt Lake Center
02:28PM 39.1839 -110.4500 275° West 486 559 43,000  Level Salt Lake Center
02:29PM 39.1944 -110.6175 275° West 489 563 43,000  Level Salt Lake Center
02:30PM 39.2058 -110.7856 275° West 490 564 43,000  Level Salt Lake Center
02:31PM 39.2181 -110.9819 275° West 492 566 43,000  Level Salt Lake Center
02:32PM 39.2275 -111.1514 274° West 495 570 43,000  Level Salt Lake Center
02:33PM 39.2392 -111.3336 275° West 492 566 43,000  Level Salt Lake Center
02:34PM 39.2503 -111.5028 275° West 489 563 43,000  Level Salt Lake Center
02:35PM 39.2597 -111.7111 273° West 486 559 43,000  Level Salt Lake Center
02:36PM 39.2703 -111.8869 274° West 493 567 43,000  Level Salt Lake Center
02:37PM 39.2797 -112.0636 274° West 494 568 43,000  Level Salt Lake Center
02:38PM 39.2897 -112.2386 274° West 493 567 43,000  Level Salt Lake Center
02:39PM 39.2997 -112.4094 274° West 484 557 43,000  Level Salt Lake Center
02:40PM 39.3061 -112.5825 273° West 483 556 43,000  Level Salt Lake Center
02:41PM 39.3044 -112.7842 269° West 480 552 43,000  Level Salt Lake Center
02:43PM 39.3058 -112.9575 271° West 482 555 43,000  Level Salt Lake Center
02:44PM 39.3064 -113.1306 270° West 483 556 43,000  Level Salt Lake Center
02:45PM 39.3069 -113.3039 270° West 485 558 43,000  Level Salt Lake Center
02:46PM 39.3067 -113.4789 270° West 490 564 43,000  Level Salt Lake Center
02:47PM 39.3072 -113.6883 270° West 489 563 43,000  Level Salt Lake Center
02:48PM 39.3072 -113.8625 270° West 488 562 43,000  Level Salt Lake Center
02:49PM 39.3053 -114.0397 269° West 494 568 43,000  Level Salt Lake Center
02:50PM 39.3044 -114.2150 270° West 492 566 43,000  Level Salt Lake Center
02:51PM 39.3014 -114.4167 269° West 503 579 43,000  Level Salt Lake Center
02:52PM 39.2997 -114.5861 269° West 497 572 43,000  Level Salt Lake Center
02:53PM 39.2978 -114.7861 269° West 498 573 43,000  Level Salt Lake Center
02:54PM 39.2919 -114.9539 267° West 492 566 43,000  Level Salt Lake Center
02:55PM 39.2794 -115.1511 265° West 493 567 43,000  Level Salt Lake Center
02:56PM 39.2664 -115.3203 264° West 493 567 43,000  Level Salt Lake Center
02:57PM 39.2578 -115.4886 266° West 491 565 43,000  Level Salt Lake Center
02:58PM 39.2442 -115.6844 265° West 490 564 43,000  Level Salt Lake Center
02:59PM 39.2325 -115.8517 265° West 489 563 43,000 -240 Level Salt Lake Center
03:00PM 39.2197 -116.0467 265° West 489 563 42,600 -720 Descending Salt Lake Center
03:01PM 39.2081 -116.2161 265° West 493 567 41,600 -1,020 Descending Salt Lake Center
03:02PM 39.1933 -116.4058 264° West 479 551 40,500 -780 Descending Salt Lake Center
03:03PM 39.1814 -116.5719 265° West 481 554 40,000 -300 Descending Salt Lake Center
03:04PM 39.1669 -116.7664 265° West 486 559 40,000  Level Salt Lake Center
03:05PM 39.1536 -116.9328 264° West 486 559 40,000  Level Salt Lake Center
03:06PM 39.1414 -117.0997 265° West 486 559 40,000  Level Salt Lake Center
03:07PM 39.1253 -117.2933 264° West 486 559 40,000  Level Salt Lake Center
03:08PM 39.1111 -117.4597 264° West 490 564 40,000 -540 Level Salt Lake Center
03:09PM 39.0967 -117.6311 264° West 484 557 39,000 -1,080 Descending Salt Lake Center
03:10PM 39.0797 -117.8347 264° West 477 549 37,800 -1,020 Descending Salt Lake Center
03:12PM 39.0650 -118.0083 264° West 484 557 36,800 -840 Descending Oakland Center
03:13PM 39.0494 -118.1833 264° West 489 563 36,000 -420 Descending Oakland Center
03:14PM 39.0333 -118.3594 263° West 492 566 36,000 -300 Level Oakland Center
03:15PM 39.0175 -118.5350 263° West 489 563 35,400 -900 Descending Oakland Center
03:16PM 38.9972 -118.7439 263° West 487 560 34,200 -1,080 Descending Oakland Center
03:17PM 38.9808 -118.9200 263° West 491 565 33,200 -1,020 Descending Oakland Center
03:18PM 38.9644 -119.0975 263° West 496 571 32,200 -1,080 Descending Oakland Center
03:19PM 38.9461 -119.2739 262° West 496 571 31,100 -1,260 Descending Oakland Center
03:20PM 38.9292 -119.4522 263° West 502 578 29,700 -1,440 Descending Oakland Center
03:21PM 38.9128 -119.6297 263° West 501 577 28,200 -1,560 Descending Oakland Center
03:22PM 38.9139 -119.8053 271° West 493 567 26,600 -1,560 Descending Oakland Center
03:23PM 38.9236 -119.9772 274° West 486 559 25,100 -1,500 Descending Oakland Center
03:24PM 38.9397 -120.1464 277° West 479 551 23,600 -1,620 Descending Oakland Center
03:25PM 38.9528 -120.3453 275° West 467 537 21,800 -1,620 Descending Oakland Center
03:26PM 38.9631 -120.5061 275° West 456 525 20,300 -1,620 Descending Oakland Center
03:27PM 38.9722 -120.6622 274° West 443 510 18,600 -1,740 Descending Oakland Center
03:28PM 38.9817 -120.8169 275° West 438 504 16,800 -1,800 Descending Oakland Center
03:29PM 38.9906 -120.9675 274° West 427 491 14,900 -1,860 Descending Oakland Center
03:30PM 38.9697 -121.0886 258° West 353 406 13,100 -1,800 Descending Oakland Center
03:31PM 38.9500 -121.1833 255° West 305 351 11,600 -2,040 Descending Northern Cal TRACON
03:32PM 38.9167 -121.2833 247° West 294 338 9,500 -1,920 Descending Northern Cal TRACON
03:33PM 38.9000 -121.3833 258° West 280 322 7,800 -2,040 Descending Northern Cal TRACON
03:34PM 38.8833 -121.4833 258° West 268 308 5,500 -1,740 Descending Northern Cal TRACON
03:35PM 38.8833 -121.5667 270° West 229 264 4,300 -1,380 Descending Northern Cal TRACON
03:36PM 38.8500 -121.6000 218° Southwest 215 247 2,800 -1,260 Descending Northern Cal TRACON
03:37PM 38.8000 -121.6000 180° South 176 203 1,800 -900 Descending Northern Cal TRACON
03:38PM 38.7500 -121.6000 180° South 144 166 1,000 -780 Descending Northern Cal TRACON
03:39PM 38.7167 -121.6000 180° South 129 148 300 -720 Descending Northern Cal TRACON
03:41PM 38.6954 -121.5908 176° South  Level Estimated